createdAt,value
2022-12-19T00:01:39.563Z,166.23
2022-12-19T00:04:10.366Z,149.57
2022-12-19T00:06:41.357Z,142.80
2022-12-19T00:09:11.042Z,144.10
2022-12-19T00:11:39.018Z,167.60
2022-12-19T00:14:06.696Z,155.80
2022-12-19T00:16:34.334Z,151.67
2022-12-19T00:19:02.242Z,148.00
2022-12-19T00:21:32.900Z,154.10
2022-12-19T00:24:03.406Z,162.37
2022-12-19T00:26:36.881Z,158.33
2022-12-19T00:29:14.301Z,155.27
2022-12-19T00:31:42.009Z,158.17
2022-12-19T00:34:10.116Z,155.00
2022-12-19T00:36:40.031Z,169.60
2022-12-19T00:39:08.775Z,153.30
2022-12-19T00:41:41.715Z,145.47
2022-12-19T00:44:17.362Z,147.30
2022-12-19T00:46:52.913Z,134.03
2022-12-19T00:49:21.065Z,160.33
2022-12-19T00:51:48.355Z,154.57
2022-12-19T00:54:15.742Z,151.03
2022-12-19T00:56:43.205Z,147.60
2022-12-19T00:59:10.929Z,144.20
2022-12-19T01:01:41.541Z,141.43
2022-12-19T01:04:30.548Z,147.43
2022-12-19T01:07:02.549Z,146.70
2022-12-19T01:09:33.415Z,136.37
2022-12-19T01:12:19.154Z,144.33
2022-12-19T01:14:48.259Z,131.50
2022-12-19T01:17:15.749Z,132.00
2022-12-19T01:19:44.686Z,137.20
2022-12-19T01:22:13.552Z,138.87
2022-12-19T01:24:41.424Z,144.70
2022-12-19T01:27:09.089Z,144.73
2022-12-19T01:29:37.612Z,150.53
2022-12-19T01:32:18.272Z,138.77
2022-12-19T01:34:45.344Z,150.93
2022-12-19T01:37:12.356Z,143.33
2022-12-19T01:39:40.053Z,138.70
2022-12-19T01:42:23.663Z,145.37
2022-12-19T01:45:12.131Z,133.90
2022-12-19T01:48:20.489Z,146.47
2022-12-19T01:51:00.695Z,146.83
2022-12-19T01:53:47.429Z,143.23
2022-12-19T01:56:20.074Z,132.57
2022-12-19T01:58:50.494Z,144.60
2022-12-19T02:01:24.506Z,132.90
2022-12-19T02:03:53.738Z,139.37
2022-12-19T02:06:22.065Z,131.07
2022-12-19T02:08:50.679Z,139.73
2022-12-19T02:11:17.821Z,143.03
2022-12-19T02:13:45.851Z,138.37
2022-12-19T02:16:26.352Z,136.33
2022-12-19T02:19:31.421Z,135.63
2022-12-19T02:22:19.430Z,132.40
2022-12-19T02:25:17.840Z,136.03
2022-12-19T02:28:16.489Z,135.47
2022-12-19T02:30:58.135Z,134.27
2022-12-19T02:33:39.657Z,136.73
2022-12-19T02:36:19.317Z,146.63
2022-12-19T02:38:52.311Z,122.40
2022-12-19T02:41:24.846Z,142.67
2022-12-19T02:43:58.738Z,133.37
2022-12-19T02:46:29.311Z,140.97
2022-12-19T02:48:58.145Z,140.73
2022-12-19T02:51:25.280Z,136.40
2022-12-19T02:53:52.434Z,148.63
2022-12-19T02:56:42.159Z,134.63
2022-12-19T02:59:28.572Z,134.07
2022-12-19T03:02:10.180Z,130.00
2022-12-19T03:04:52.443Z,135.37
2022-12-19T03:07:42.701Z,149.03
2022-12-19T03:10:22.746Z,141.50
2022-12-19T03:13:17.606Z,148.47
2022-12-19T03:15:45.958Z,141.70
2022-12-19T03:18:13.373Z,138.03
2022-12-19T03:20:43.238Z,152.63
2022-12-19T03:23:10.773Z,145.77
2022-12-19T03:25:40.684Z,148.33
2022-12-19T03:28:13.706Z,150.97
2022-12-19T03:30:43.474Z,140.40
2022-12-19T03:33:13.743Z,147.17
2022-12-19T03:35:41.582Z,145.77
2022-12-19T03:38:11.155Z,148.47
2022-12-19T03:40:40.091Z,145.17
2022-12-19T03:43:11.620Z,140.77
2022-12-19T03:45:50.770Z,144.97
2022-12-19T03:48:41.593Z,134.13
2022-12-19T03:51:14.361Z,133.70
2022-12-19T03:54:02.171Z,139.53
2022-12-19T03:57:04.436Z,132.17
2022-12-19T03:59:43.210Z,132.33
2022-12-19T04:02:11.686Z,127.83
2022-12-19T04:04:44.158Z,133.97
2022-12-19T04:07:16.594Z,132.83
2022-12-19T04:09:46.030Z,131.57
2022-12-19T04:12:21.519Z,137.07
2022-12-19T04:14:49.687Z,138.43
2022-12-19T04:17:47.481Z,135.63
2022-12-19T04:20:17.236Z,132.47
2022-12-19T04:22:54.108Z,131.30
2022-12-19T04:25:29.797Z,139.20
2022-12-19T04:28:14.088Z,124.27
2022-12-19T04:30:42.599Z,115.10
2022-12-19T04:33:09.659Z,127.67
2022-12-19T04:35:37.184Z,118.37
2022-12-19T04:38:04.451Z,122.73
2022-12-19T04:40:36.533Z,113.77
2022-12-19T04:43:08.427Z,117.00
2022-12-19T04:45:35.910Z,125.20
2022-12-19T04:48:04.446Z,126.10
2022-12-19T04:50:33.513Z,103.23
2022-12-19T04:53:01.128Z,115.03
2022-12-19T04:55:28.193Z,114.53
2022-12-19T04:57:55.228Z,107.70
2022-12-19T05:00:22.324Z,111.33
2022-12-19T05:02:49.588Z,105.87
2022-12-19T05:05:18.940Z,119.17
2022-12-19T05:07:47.162Z,108.87
2022-12-19T05:10:14.462Z,108.53
2022-12-19T05:12:41.559Z,110.53
2022-12-19T05:15:09.102Z,109.53
2022-12-19T05:17:36.402Z,121.53
2022-12-19T05:20:04.264Z,119.07
2022-12-19T05:22:31.401Z,123.50
2022-12-19T05:24:58.574Z,112.50
2022-12-19T05:27:25.612Z,117.53
2022-12-19T05:29:52.649Z,102.43
2022-12-19T05:32:19.748Z,116.53
2022-12-19T05:34:46.852Z,111.57
2022-12-19T05:37:13.940Z,101.27
2022-12-19T05:39:41.019Z,111.67
2022-12-19T05:42:12.176Z,112.27
2022-12-19T05:44:39.754Z,111.60
2022-12-19T05:47:06.922Z,118.47
2022-12-19T05:49:34.003Z,121.80
2022-12-19T05:52:01.065Z,121.50
2022-12-19T05:54:28.390Z,113.23
2022-12-19T05:56:55.757Z,117.87
2022-12-19T05:59:22.892Z,110.47
2022-12-19T06:01:50.006Z,113.67
2022-12-19T06:04:17.165Z,113.97
2022-12-19T06:06:44.378Z,121.40
2022-12-19T06:09:11.491Z,119.40
2022-12-19T06:11:38.534Z,110.40
2022-12-19T06:14:08.372Z,109.83
2022-12-19T06:16:35.507Z,105.80
2022-12-19T06:19:02.634Z,101.60
2022-12-19T06:21:29.731Z,102.60
2022-12-19T06:23:57.063Z,93.03
2022-12-19T06:26:24.173Z,112.73
2022-12-19T06:28:52.837Z,104.83
2022-12-19T06:31:22.055Z,105.53
2022-12-19T06:33:49.649Z,98.43
2022-12-19T06:36:26.455Z,98.77
2022-12-19T06:38:55.527Z,98.27
2022-12-19T06:41:41.069Z,107.43
2022-12-19T06:44:10.751Z,103.93
2022-12-19T06:46:39.703Z,100.83
2022-12-19T06:49:07.527Z,108.47
2022-12-19T06:51:34.744Z,98.13
2022-12-19T06:54:02.163Z,105.03
2022-12-19T06:56:29.445Z,104.67
2022-12-19T06:58:56.890Z,100.13
2022-12-19T07:01:48.995Z,101.03
2022-12-19T07:04:22.488Z,102.63
2022-12-19T07:06:49.922Z,103.13
2022-12-19T07:09:18.399Z,96.60
2022-12-19T07:11:45.426Z,97.53
2022-12-19T07:14:12.526Z,96.13
2022-12-19T07:16:40.477Z,96.73
2022-12-19T07:19:09.305Z,97.67
2022-12-19T07:21:38.851Z,101.33
2022-12-19T07:24:07.453Z,94.80
2022-12-19T07:26:35.971Z,88.37
2022-12-19T07:29:03.608Z,88.50
2022-12-19T07:31:30.768Z,90.70
2022-12-19T07:33:58.150Z,102.43
2022-12-19T07:36:25.592Z,102.17
2022-12-19T07:38:52.665Z,106.10
2022-12-19T07:41:19.793Z,92.93
2022-12-19T07:43:47.426Z,90.63
2022-12-19T07:46:14.711Z,89.77
2022-12-19T07:48:42.131Z,82.67
2022-12-19T07:51:09.239Z,89.53
2022-12-19T07:53:36.315Z,80.13
2022-12-19T07:56:03.395Z,81.33
2022-12-19T07:58:31.104Z,80.57
2022-12-19T08:01:00.952Z,83.37
2022-12-19T08:03:31.096Z,75.40
2022-12-19T08:06:03.042Z,71.73
2022-12-19T08:08:30.763Z,74.30
2022-12-19T08:11:10.696Z,72.60
2022-12-19T08:13:42.011Z,69.57
2022-12-19T08:16:13.448Z,69.40
2022-12-19T08:18:40.779Z,75.43
2022-12-19T08:21:09.388Z,66.67
2022-12-19T08:23:36.680Z,66.93
2022-12-19T08:26:06.589Z,74.23
2022-12-19T08:28:35.614Z,63.07
2022-12-19T08:31:07.140Z,66.93
2022-12-19T08:33:34.394Z,66.93
2022-12-19T08:36:13.016Z,66.23
2022-12-19T08:38:40.978Z,64.80
2022-12-19T08:41:08.341Z,63.92
2022-12-19T08:43:35.793Z,61.33
2022-12-19T08:46:02.949Z,57.33
2022-12-19T08:48:31.746Z,57.13
2022-12-19T08:51:01.461Z,59.73
2022-12-19T08:53:30.961Z,57.63
2022-12-19T08:56:00.045Z,56.95
2022-12-19T08:58:29.196Z,56.43
2022-12-19T09:01:05.234Z,55.55
2022-12-19T09:03:42.809Z,57.10
2022-12-19T09:06:20.543Z,55.30
2022-12-19T09:08:47.810Z,56.58
2022-12-19T09:11:16.936Z,57.20
2022-12-19T09:13:45.112Z,64.05
2022-12-19T09:16:16.666Z,61.05
2022-12-19T09:18:49.035Z,56.75
2022-12-19T09:21:17.102Z,59.95
2022-12-19T09:23:47.984Z,60.85
2022-12-19T09:26:17.412Z,56.45
2022-12-19T09:28:47.328Z,61.17
2022-12-19T09:31:21.083Z,52.80
2022-12-19T09:33:48.795Z,53.60
2022-12-19T09:36:18.090Z,51.60
2022-12-19T09:38:46.291Z,59.43
2022-12-19T09:41:37.340Z,52.08
2022-12-19T09:44:25.207Z,58.13
2022-12-19T09:47:04.352Z,56.75
2022-12-19T09:49:42.185Z,57.13
2022-12-19T09:52:19.245Z,52.40
2022-12-19T09:54:51.914Z,54.83
2022-12-19T09:57:37.535Z,55.35
2022-12-19T10:00:08.150Z,57.65
2022-12-19T10:02:48.343Z,55.42
2022-12-19T10:06:52.533Z,56.17
2022-12-19T10:08:35.044Z,51.35
2022-12-19T10:12:38.173Z,49.33
2022-12-19T10:14:36.691Z,51.83
2022-12-19T10:17:25.763Z,48.40
2022-12-19T10:20:28.632Z,51.92
2022-12-19T10:23:37.388Z,56.42
2022-12-19T10:26:23.499Z,55.10
2022-12-19T10:29:34.756Z,58.22
2022-12-19T10:32:43.223Z,63.13
2022-12-19T10:35:16.588Z,53.25
2022-12-19T10:38:09.988Z,48.93
2022-12-19T10:40:48.480Z,55.55
2022-12-19T10:43:50.323Z,57.20
2022-12-19T10:46:24.474Z,53.30
2022-12-19T10:48:52.951Z,44.15
2022-12-19T10:51:25.023Z,46.53
2022-12-19T10:53:58.182Z,45.22
2022-12-19T10:56:37.055Z,47.22
2022-12-19T10:59:16.216Z,43.85
2022-12-19T11:01:44.631Z,43.13
2022-12-19T11:04:33.164Z,40.53
2022-12-19T11:07:03.700Z,37.55
2022-12-19T11:09:46.804Z,25.55
2022-12-19T11:17:00.119Z,30.92
2022-12-19T11:19:13.814Z,26.95
2022-12-19T11:29:27.014Z,25.75
2022-12-19T11:29:39.512Z,24.13
2022-12-19T11:30:08.864Z,28.13
2022-12-19T11:30:37.768Z,27.63
2022-12-19T11:32:45.840Z,28.77
2022-12-19T11:35:36.554Z,27.27
2022-12-19T11:38:06.949Z,27.15
2022-12-19T11:40:49.783Z,29.45
2022-12-19T11:43:48.162Z,31.48
2022-12-19T11:46:40.426Z,32.92
2022-12-19T11:49:32.054Z,34.20
2022-12-19T11:53:03.916Z,32.28
2022-12-19T11:55:46.632Z,35.80
2022-12-19T11:58:14.258Z,39.40
2022-12-19T12:00:54.289Z,36.15
2022-12-19T12:03:30.227Z,36.28
2022-12-19T12:05:58.574Z,39.70
2022-12-19T12:11:07.923Z,33.08
2022-12-19T12:18:38.411Z,34.40
2022-12-19T12:26:31.424Z,34.40
2022-12-19T12:30:10.048Z,34.72
2022-12-19T12:31:39.938Z,39.58
2022-12-19T12:31:40.924Z,33.92
2022-12-19T12:31:49.679Z,40.67
2022-12-19T12:32:00.349Z,34.20
2022-12-19T12:35:40.505Z,40.53
2022-12-19T12:39:50.201Z,39.97
2022-12-19T12:42:32.961Z,38.70
2022-12-19T12:45:03.041Z,43.45
2022-12-19T12:47:30.457Z,41.88
2022-12-19T12:50:13.780Z,44.47
2022-12-19T12:52:44.187Z,46.40
2022-12-19T12:55:28.876Z,48.00
2022-12-19T12:57:56.092Z,41.97
2022-12-19T13:00:29.320Z,56.90
2022-12-19T13:03:07.291Z,48.30
2022-12-19T13:05:40.928Z,42.17
2022-12-19T13:08:40.175Z,39.80
2022-12-19T13:11:38.111Z,43.65
2022-12-19T13:14:06.915Z,41.80
2022-12-19T13:16:46.236Z,40.03
2022-12-19T13:19:28.009Z,43.05
2022-12-19T13:22:05.317Z,47.53
2022-12-19T13:24:54.480Z,40.35
2022-12-19T13:27:21.664Z,43.03
2022-12-19T13:30:00.949Z,42.80
2022-12-19T13:32:33.136Z,47.97
2022-12-19T13:35:49.102Z,51.97
2022-12-19T13:39:54.295Z,45.95
2022-12-19T13:41:58.080Z,48.90
2022-12-19T13:44:25.909Z,46.85
2022-12-19T13:46:56.268Z,54.50
2022-12-19T13:49:34.852Z,54.83
2022-12-19T13:52:05.374Z,54.03
2022-12-19T13:54:38.157Z,53.33
2022-12-19T13:57:23.131Z,48.95
2022-12-19T14:00:00.485Z,49.38
2022-12-19T14:02:44.570Z,50.42
2022-12-19T14:06:15.189Z,48.47
2022-12-19T14:08:22.546Z,40.38
2022-12-19T14:11:44.208Z,46.80
2022-12-19T14:14:19.133Z,48.95
2022-12-19T14:16:51.914Z,55.78
2022-12-19T14:19:21.267Z,57.78
2022-12-19T14:22:10.357Z,52.67
2022-12-19T14:24:35.523Z,51.90
2022-12-19T14:28:21.197Z,46.38
2022-12-19T14:30:26.671Z,52.20
2022-12-19T14:33:47.185Z,53.20
2022-12-19T14:36:06.158Z,50.83
2022-12-19T14:39:20.543Z,58.47
2022-12-19T14:41:46.440Z,56.35
2022-12-19T14:52:08.570Z,50.00
2022-12-19T14:53:52.337Z,54.10
2022-12-19T14:54:25.678Z,51.67
2022-12-19T14:54:48.168Z,49.08
2022-12-19T14:56:12.352Z,50.25
2022-12-19T14:58:53.972Z,50.03
2022-12-19T15:01:24.992Z,61.17
2022-12-19T15:04:48.459Z,56.22
2022-12-19T15:07:09.861Z,58.35
2022-12-19T15:11:05.552Z,49.33
2022-12-19T15:14:53.290Z,53.97
2022-12-19T15:16:23.308Z,49.35
2022-12-19T15:18:53.128Z,46.33
2022-12-19T15:21:20.441Z,53.00
2022-12-19T15:23:47.483Z,45.35
2022-12-19T15:26:20.896Z,44.35
2022-12-19T15:28:50.609Z,47.35
2022-12-19T15:31:41.202Z,47.65
2022-12-19T15:34:35.466Z,51.38
2022-12-19T15:37:04.997Z,58.75
2022-12-19T15:39:32.088Z,50.00
2022-12-19T15:42:00.427Z,52.60
2022-12-19T15:44:40.875Z,54.00
2022-12-19T15:47:25.972Z,50.78
2022-12-19T15:49:53.067Z,51.10
2022-12-19T15:52:22.205Z,55.53
2022-12-19T15:54:50.668Z,49.97
2022-12-19T15:57:38.595Z,50.35
2022-12-19T16:00:23.386Z,48.17
2022-12-19T16:05:38.372Z,50.95
2022-12-19T16:08:32.285Z,50.33
2022-12-19T16:11:01.654Z,51.60
2022-12-19T16:13:35.519Z,51.67
2022-12-19T16:16:09.229Z,58.67
2022-12-19T16:18:40.035Z,59.97
2022-12-19T16:21:07.134Z,54.30
2022-12-19T16:23:34.160Z,53.85
2022-12-19T16:26:01.661Z,53.30
2022-12-19T16:28:32.070Z,47.75
2022-12-19T16:31:00.706Z,49.45
2022-12-19T16:33:29.915Z,51.95
2022-12-19T16:36:06.983Z,49.78
2022-12-19T16:38:35.668Z,51.85
2022-12-19T16:41:03.167Z,54.03
2022-12-19T16:43:41.217Z,54.50
2022-12-19T16:46:10.133Z,54.00
2022-12-19T16:48:37.247Z,54.97
2022-12-19T16:51:04.456Z,57.90
2022-12-19T16:53:31.614Z,55.25
2022-12-19T16:56:00.221Z,56.38
2022-12-19T16:58:29.486Z,52.85
2022-12-19T17:00:57.038Z,59.45
2022-12-19T17:03:32.771Z,55.53
2022-12-19T17:06:00.470Z,53.90
2022-12-19T17:08:27.795Z,52.50
2022-12-19T17:10:55.237Z,56.65
2022-12-19T17:13:23.802Z,59.22
2022-12-19T17:15:56.265Z,60.67
2022-12-19T17:18:29.914Z,55.83
2022-12-19T17:20:57.151Z,61.90
2022-12-19T17:23:26.142Z,71.22
2022-12-19T17:25:55.107Z,133.35
2022-12-19T17:28:22.775Z,93.68
2022-12-19T17:30:53.563Z,75.50
2022-12-19T17:33:22.980Z,64.07
2022-12-19T17:35:53.841Z,59.35
2022-12-19T17:38:21.023Z,63.35
2022-12-19T17:40:48.155Z,54.20
2022-12-19T17:43:15.276Z,61.92
2022-12-19T17:45:42.500Z,63.95
2022-12-19T17:48:31.403Z,50.42
2022-12-19T17:50:59.346Z,60.65
2022-12-19T17:53:26.791Z,54.78
2022-12-19T17:55:53.889Z,58.63
2022-12-19T17:58:21.879Z,49.90
2022-12-19T18:00:51.191Z,50.33
2022-12-19T18:03:20.319Z,51.60
2022-12-19T18:05:48.921Z,52.70
2022-12-19T18:08:36.262Z,47.38
2022-12-19T18:11:05.851Z,53.13
2022-12-19T18:13:33.494Z,45.95
2022-12-19T18:16:02.961Z,51.17
2022-12-19T18:18:35.652Z,48.05
2022-12-19T18:21:04.441Z,49.03
2022-12-19T18:23:31.773Z,48.15
2022-12-19T18:26:01.998Z,52.42
2022-12-19T18:28:30.283Z,53.97
2022-12-19T18:31:13.229Z,55.17
2022-12-19T18:33:43.053Z,53.53
2022-12-19T18:36:20.478Z,59.58
2022-12-19T18:38:48.908Z,55.67
2022-12-19T18:41:17.587Z,59.65
2022-12-19T18:43:45.006Z,51.10
2022-12-19T18:46:29.658Z,54.60
2022-12-19T18:48:59.182Z,51.25
2022-12-19T18:51:29.480Z,52.58
2022-12-19T18:53:56.873Z,47.33
2022-12-19T18:56:23.955Z,50.83
2022-12-19T18:58:51.129Z,58.33
2022-12-19T19:01:21.849Z,51.13
2022-12-19T19:03:56.164Z,47.88
2022-12-19T19:06:26.324Z,53.30
2022-12-19T19:08:53.502Z,56.50
2022-12-19T19:11:33.474Z,56.22
2022-12-19T19:14:00.627Z,53.58
2022-12-19T19:16:28.350Z,51.45
2022-12-19T19:18:58.699Z,54.45
2022-12-19T19:21:29.684Z,52.83
2022-12-19T19:24:22.042Z,50.28
2022-12-19T19:26:49.801Z,51.95
2022-12-19T19:29:19.114Z,53.70
2022-12-19T19:31:49.023Z,55.45
2022-12-19T19:34:22.049Z,53.85
2022-12-19T19:36:53.705Z,53.28
2022-12-19T19:39:22.997Z,51.05
2022-12-19T19:41:50.315Z,54.33
2022-12-19T19:44:17.439Z,52.53
2022-12-19T19:46:44.984Z,51.97
2022-12-19T19:49:12.515Z,56.03
2022-12-19T19:51:39.747Z,56.75
2022-12-19T19:54:07.057Z,48.53
2022-12-19T19:56:34.243Z,52.40
2022-12-19T19:59:01.412Z,49.30
2022-12-19T20:01:29.229Z,55.60
2022-12-19T20:03:56.809Z,64.90
2022-12-19T20:06:24.394Z,59.58
2022-12-19T20:08:51.835Z,65.55
2022-12-19T20:11:20.606Z,59.95
2022-12-19T20:13:47.722Z,51.95
2022-12-19T20:16:17.795Z,54.05
2022-12-19T20:18:53.054Z,56.38
2022-12-19T20:21:20.973Z,54.83
2022-12-19T20:23:48.476Z,62.58
2022-12-19T20:26:17.013Z,60.22
2022-12-19T20:28:49.575Z,58.10
2022-12-19T20:31:23.213Z,52.92
2022-12-19T20:33:50.880Z,58.10
2022-12-19T20:36:18.263Z,66.35
2022-12-19T20:38:46.131Z,54.13
2022-12-19T20:41:15.463Z,62.10
2022-12-19T20:43:42.778Z,60.50
2022-12-19T20:46:12.690Z,58.75
2022-12-19T20:48:41.281Z,62.50
2022-12-19T20:51:09.007Z,66.70
2022-12-19T20:53:37.684Z,67.18
2022-12-19T20:56:07.092Z,65.80
2022-12-19T20:58:36.150Z,68.20
2022-12-19T21:01:05.707Z,66.05
2022-12-19T21:03:33.411Z,71.10
2022-12-19T21:06:01.067Z,65.40
2022-12-19T21:08:28.522Z,72.65
2022-12-19T21:10:55.646Z,64.13
2022-12-19T21:13:23.997Z,74.28
2022-12-19T21:15:59.334Z,69.93
2022-12-19T21:18:26.981Z,81.70
2022-12-19T21:20:54.461Z,67.90
2022-12-19T21:23:22.668Z,70.05
2022-12-19T21:25:50.214Z,66.88
2022-12-19T21:28:17.541Z,65.07
2022-12-19T21:30:44.856Z,66.38
2022-12-19T21:33:11.956Z,67.15
2022-12-19T21:35:39.279Z,59.67
2022-12-19T21:38:06.315Z,57.38
2022-12-19T21:40:36.266Z,64.25
2022-12-19T21:43:11.152Z,75.30
2022-12-19T21:45:39.004Z,72.68
2022-12-19T21:48:06.248Z,75.28
2022-12-19T21:50:36.365Z,82.85
2022-12-19T21:53:03.607Z,69.07
2022-12-19T21:55:30.682Z,66.13
2022-12-19T21:57:59.154Z,68.55
2022-12-19T22:00:26.295Z,75.90
2022-12-19T22:03:13.163Z,71.47
2022-12-19T22:05:41.225Z,66.00
2022-12-19T22:08:10.854Z,59.42
2022-12-19T22:10:39.903Z,63.05
2022-12-19T22:13:06.975Z,65.68
2022-12-19T22:15:36.570Z,59.25
2022-12-19T22:18:04.536Z,62.00
2022-12-19T22:20:31.627Z,54.00
2022-12-19T22:22:58.719Z,57.08
2022-12-19T22:25:25.838Z,66.63
2022-12-19T22:27:56.118Z,52.92
2022-12-19T22:30:23.156Z,63.67
2022-12-19T22:32:50.254Z,61.17
2022-12-19T22:35:17.540Z,66.80
2022-12-19T22:37:44.861Z,66.45
2022-12-19T22:40:15.153Z,60.35
2022-12-19T22:42:42.271Z,58.22
2022-12-19T22:45:09.674Z,59.97
2022-12-19T22:47:37.017Z,56.10
2022-12-19T22:50:04.385Z,60.97
2022-12-19T22:52:31.417Z,70.35
2022-12-19T22:54:58.483Z,64.78
2022-12-19T22:57:25.533Z,69.05
2022-12-19T22:59:52.667Z,75.65
2022-12-19T23:02:19.979Z,62.22
2022-12-19T23:04:47.209Z,65.90
2022-12-19T23:07:14.326Z,64.07
2022-12-19T23:09:41.501Z,55.55
2022-12-19T23:12:08.642Z,61.58
2022-12-19T23:14:35.737Z,55.38
2022-12-19T23:17:02.848Z,62.05
2022-12-19T23:19:30.035Z,58.50
2022-12-19T23:21:57.220Z,56.60
2022-12-19T23:24:24.615Z,56.72
2022-12-19T23:26:53.307Z,63.70
2022-12-19T23:29:20.540Z,54.80
2022-12-19T23:31:47.882Z,62.38
2022-12-19T23:34:16.050Z,54.35
2022-12-19T23:37:10.294Z,57.55
2022-12-19T23:39:30.879Z,50.00
2022-12-19T23:41:57.982Z,51.63
2022-12-19T23:44:25.419Z,41.28
2022-12-19T23:46:53.225Z,46.80
2022-12-19T23:49:22.628Z,42.85
2022-12-19T23:51:49.846Z,42.03
2022-12-19T23:54:16.935Z,44.03
2022-12-19T23:56:44.137Z,47.63
2022-12-19T23:59:11.173Z,49.25
